Time;durP1;ratioP1;P1;durP2;ratioP2;P2;SDS_P1;SDS_P2;PMS_P1;PMS_P2;Temp;Humidity;BMP_temperature;BMP_pressure;BME280_temperature;BME280_humidity;BME280_pressure;Samples;Min_cycle;Max_cycle;Signal;HPM_P1;HPM_P2
2022/12/25 00:00:24;;;;;;;33.22;20.33;;;;;;;9.18;100.00;100168.56;5018753;28;20400;-73
2022/12/25 00:02:49;;;;;;;26.08;18.13;;;;;;;9.21;100.00;100161.63;5022532;28;20037;-73
2022/12/25 00:05:15;;;;;;;32.17;19.13;;;;;;;9.20;100.00;100159.97;5017528;28;20038;-73
2022/12/25 00:07:40;;;;;;;26.70;17.40;;;;;;;9.20;100.00;100165.53;5018510;28;20033;-73
2022/12/25 00:10:06;;;;;;;28.02;16.77;;;;;;;9.23;100.00;100158.56;5017209;28;20033;-73
2022/12/25 00:12:32;;;;;;;26.75;16.38;;;;;;;9.24;100.00;100165.75;5033644;28;20034;-73
2022/12/25 00:14:58;;;;;;;23.77;16.42;;;;;;;9.24;100.00;100174.06;5018720;28;20034;-73
2022/12/25 00:17:23;;;;;;;27.92;15.10;;;;;;;9.25;100.00;100159.06;5018221;28;20076;-73
2022/12/25 00:19:49;;;;;;;23.45;15.55;;;;;;;9.24;100.00;100149.94;5018440;28;20036;-73
2022/12/25 00:22:15;;;;;;;21.90;14.38;;;;;;;9.26;100.00;100147.72;5023138;28;20067;-73
2022/12/25 00:24:40;;;;;;;22.08;14.23;;;;;;;9.27;100.00;100148.53;5014779;28;20026;-73
2022/12/25 00:27:06;;;;;;;21.65;14.30;;;;;;;9.26;100.00;100150.47;5015779;28;20033;-73
2022/12/25 00:29:31;;;;;;;19.75;14.07;;;;;;;9.29;100.00;100168.47;5029173;28;20037;-73
2022/12/25 00:31:57;;;;;;;20.25;14.50;;;;;;;9.29;100.00;100162.94;5017536;28;20029;-73
2022/12/25 00:34:22;;;;;;;19.92;14.05;;;;;;;9.28;100.00;100164.06;5005006;28;20034;-73
2022/12/25 00:36:50;;;;;;;21.10;14.43;;;;;;;9.31;100.00;100161.50;5019492;28;20038;-73
2022/12/25 00:39:16;;;;;;;21.23;13.70;;;;;;;9.28;100.00;100155.75;5026568;28;20030;-73
2022/12/25 00:44:25;;;;;;;22.90;14.63;;;;;;;9.30;100.00;100150.72;5017533;28;20131;-73
2022/12/25 00:46:51;;;;;;;20.98;13.77;;;;;;;9.30;100.00;100136.84;5017472;28;20069;-73
2022/12/25 00:49:16;;;;;;;20.33;13.82;;;;;;;9.27;100.00;100129.13;5016333;28;20033;-73
2022/12/25 00:51:42;;;;;;;20.35;14.15;;;;;;;9.27;100.00;100123.59;5015622;28;20037;-73
2022/12/25 00:54:07;;;;;;;18.88;13.35;;;;;;;9.29;100.00;100113.03;5023444;28;20041;-73
2022/12/25 00:56:33;;;;;;;19.83;13.10;;;;;;;9.29;100.00;100108.31;5017266;28;20096;-73
2022/12/25 00:58:59;;;;;;;21.15;14.90;;;;;;;9.29;100.00;100088.09;5017261;28;20125;-73
2022/12/25 01:01:24;;;;;;;18.98;12.68;;;;;;;9.27;100.00;100066.22;5017309;28;20056;-73
2022/12/25 01:03:50;;;;;;;16.70;11.98;;;;;;;9.31;100.00;100063.72;5016168;28;20029;-73
2022/12/25 01:06:15;;;;;;;19.00;13.15;;;;;;;9.29;100.00;100055.69;5017492;28;20037;-73
2022/12/25 01:10:21;;;;;;;20.70;13.77;;;;;;;9.31;100.00;100055.38;5017306;28;20025;-73
2022/12/25 01:11:27;;;;;;;17.52;13.10;;;;;;;9.31;100.00;100052.63;5016229;28;20088;-74
2022/12/25 01:13:52;;;;;;;19.00;13.30;;;;;;;9.29;100.00;100052.09;5031087;28;20034;-73
2022/12/25 01:16:18;;;;;;;23.25;14.27;;;;;;;9.32;100.00;100051.50;5017292;28;20032;-73
2022/12/25 01:18:45;;;;;;;19.50;13.38;;;;;;;9.32;100.00;100051.50;5017271;28;20052;-73
2022/12/25 01:21:14;;;;;;;19.27;13.68;;;;;;;9.30;100.00;100045.41;5017165;28;20414;-73
2022/12/25 01:23:40;;;;;;;22.92;13.80;;;;;;;9.28;100.00;100051.25;5014447;28;20026;-73
2022/12/25 01:26:06;;;;;;;22.55;13.57;;;;;;;9.27;100.00;100060.69;5006655;28;20517;-73
2022/12/25 01:28:32;;;;;;;23.88;13.93;;;;;;;9.28;100.00;100056.00;5016084;28;20486;-73
2022/12/25 01:30:57;;;;;;;19.55;13.95;;;;;;;9.26;100.00;100064.59;5017040;28;20034;-73
2022/12/25 01:33:22;;;;;;;19.40;13.63;;;;;;;9.28;100.00;100084.50;5026878;28;20029;-73
2022/12/25 01:35:48;;;;;;;22.10;15.30;;;;;;;9.28;100.00;100062.34;5025946;28;20034;-73
2022/12/25 01:38:14;;;;;;;19.00;14.35;;;;;;;9.28;100.00;100089.25;5020919;28;20046;-73
2022/12/25 01:40:39;;;;;;;22.10;15.13;;;;;;;9.29;100.00;100079.78;5015566;28;20041;-73
2022/12/25 01:43:28;;;;;;;21.38;14.93;;;;;;;9.28;100.00;100089.25;5019029;28;20033;-73
2022/12/25 01:45:54;;;;;;;21.45;15.07;;;;;;;9.27;100.00;100096.69;5008573;28;20089;-73
2022/12/25 01:48:25;;;;;;;23.35;16.33;;;;;;;9.30;100.00;100100.84;5016875;28;20402;-73
2022/12/25 01:50:56;;;;;;;24.17;17.13;;;;;;;9.29;100.00;100113.03;5015530;28;20490;-74
2022/12/25 01:53:22;;;;;;;25.73;17.13;;;;;;;9.31;100.00;100111.63;4999436;28;20490;-73
2022/12/25 01:55:48;;;;;;;21.40;14.90;;;;;;;9.31;100.00;100116.34;4998907;28;20100;-73
2022/12/25 01:58:13;;;;;;;21.45;14.68;;;;;;;9.30;100.00;100125.78;5016686;28;20040;-73
2022/12/25 02:00:39;;;;;;;27.30;16.52;;;;;;;9.30;100.00;100114.69;5015131;28;20026;-73
2022/12/25 02:03:04;;;;;;;25.85;16.88;;;;;;;9.31;100.00;100119.13;5020131;28;20045;-73
2022/12/25 02:05:31;;;;;;;20.67;14.60;;;;;;;9.30;100.00;100125.78;5015188;28;20057;-73
2022/12/25 02:07:58;;;;;;;19.92;14.85;;;;;;;9.30;100.00;100129.34;4998701;28;20030;-73
2022/12/25 02:10:24;;;;;;;19.80;13.90;;;;;;;9.29;100.00;100130.50;4998222;28;20030;-73
2022/12/25 02:12:49;;;;;;;22.75;15.55;;;;;;;9.29;100.00;100124.13;5017304;28;20041;-73
2022/12/25 02:15:18;;;;;;;23.55;15.55;;;;;;;9.30;100.00;100120.22;5027614;28;20038;-74
2022/12/25 02:17:56;;;;;;;19.05;14.35;;;;;;;9.29;100.00;100119.41;5016060;28;20033;-73
2022/12/25 02:20:43;;;;;;;18.83;13.27;;;;;;;9.32;100.00;100109.69;4999402;28;20094;-73
2022/12/25 02:23:30;;;;;;;18.17;13.45;;;;;;;9.33;100.00;100105.78;5016337;28;20026;-73
2022/12/25 02:26:10;;;;;;;19.15;13.63;;;;;;;9.31;100.00;100108.88;5004234;28;20034;-73
2022/12/25 02:28:54;;;;;;;18.60;13.85;;;;;;;9.32;100.00;100123.53;5014598;28;20157;-73
2022/12/25 02:31:25;;;;;;;23.48;15.70;;;;;;;9.32;100.00;100131.84;5017004;28;20061;-73
2022/12/25 02:34:19;;;;;;;20.73;15.23;;;;;;;9.31;100.00;100121.91;5015025;28;20560;-73
2022/12/25 02:36:47;;;;;;;18.20;13.60;;;;;;;9.32;100.00;100126.31;4999001;28;20515;-74
2022/12/25 03:08:02;;;;;;;15.95;11.82;;;;;;;9.29;100.00;100105.56;5008532;28;20577;-73
2022/12/25 03:13:14;;;;;;;13.68;10.43;;;;;;;9.32;100.00;100093.06;5019136;28;20041;-73
2022/12/25 03:18:25;;;;;;;12.60;10.10;;;;;;;9.32;100.00;100051.50;5015581;28;20386;-73
2022/12/25 03:29:04;;;;;;;10.60;8.20;;;;;;;9.33;100.00;99997.69;5005623;28;20026;-74
2022/12/25 03:31:45;;;;;;;10.05;7.43;;;;;;;9.33;100.00;99978.31;5017730;28;20079;-73
2022/12/25 04:38:31;;;;;;;7.47;6.38;;;;;;;9.27;100.00;99886.09;5017696;28;20088;-73
2022/12/25 04:40:58;;;;;;;7.85;6.35;;;;;;;9.27;100.00;99899.16;5017942;28;20030;-73
2022/12/25 04:43:24;;;;;;;9.43;6.60;;;;;;;9.25;100.00;99906.94;5029109;28;20030;-73
2022/12/25 04:45:56;;;;;;;10.95;7.40;;;;;;;9.23;100.00;99912.78;5017827;28;20057;-73
2022/12/25 04:48:22;;;;;;;9.75;8.55;;;;;;;9.23;100.00;99911.97;5016776;28;20030;-73
2022/12/25 04:50:47;;;;;;;10.88;7.07;;;;;;;9.23;100.00;99912.78;5017692;28;20036;-74
2022/12/25 04:53:14;;;;;;;8.15;6.68;;;;;;;9.23;100.00;99911.97;4999515;28;20030;-73
2022/12/25 04:55:39;;;;;;;8.85;6.85;;;;;;;9.24;100.00;99896.97;5016609;28;20034;-73
2022/12/25 04:58:05;;;;;;;10.60;7.07;;;;;;;9.25;100.00;99898.63;5020357;28;20049;-73
2022/12/25 05:00:30;;;;;;;8.77;7.03;;;;;;;9.25;100.00;99882.84;5017654;28;20030;-73
2022/12/25 05:02:56;;;;;;;11.65;7.40;;;;;;;9.24;100.00;99878.41;5005477;28;20029;-73
2022/12/25 05:05:22;;;;;;;9.30;7.07;;;;;;;9.24;100.00;99867.31;5017148;28;20037;-73
2022/12/25 05:07:47;;;;;;;8.30;6.72;;;;;;;9.20;100.00;99866.28;5017497;28;20490;-73
2022/12/25 05:10:13;;;;;;;8.63;6.15;;;;;;;9.23;100.00;99859.31;5017486;28;20034;-73
2022/12/25 05:12:38;;;;;;;7.28;6.28;;;;;;;9.21;100.00;99867.91;5021812;28;20030;-73
2022/12/25 05:15:04;;;;;;;8.32;6.63;;;;;;;9.22;100.00;99871.50;5022669;28;20040;-73
2022/12/25 05:17:30;;;;;;;8.45;7.38;;;;;;;9.21;100.00;99879.00;4999474;28;20030;-73
2022/12/25 05:19:55;;;;;;;8.07;5.78;;;;;;;9.20;100.00;99885.69;5017181;28;20037;-73
2022/12/25 05:22:21;;;;;;;8.02;6.53;;;;;;;9.21;100.00;99894.81;5017430;28;20041;-73
2022/12/25 05:24:46;;;;;;;9.65;6.47;;;;;;;9.18;100.00;99885.16;5005694;28;20479;-73
2022/12/25 05:27:11;;;;;;;8.93;6.90;;;;;;;9.16;100.00;99877.16;5015392;28;20029;-73
2022/12/25 05:29:37;;;;;;;9.80;6.78;;;;;;;9.18;100.00;99877.66;5015746;28;20073;-73
2022/12/25 05:32:03;;;;;;;9.35;7.25;;;;;;;9.17;100.00;99884.34;5015619;28;20055;-74
2022/12/25 05:34:28;;;;;;;8.77;6.95;;;;;;;9.17;100.00;99912.03;5024954;28;20029;-73
2022/12/25 05:36:55;;;;;;;8.88;7.60;;;;;;;9.16;100.00;99915.94;5021373;28;20381;-73
2022/12/25 05:39:21;;;;;;;9.38;7.80;;;;;;;9.13;100.00;99910.97;5025446;28;20784;-73
2022/12/25 05:41:46;;;;;;;7.50;6.47;;;;;;;9.15;100.00;99891.28;5028171;28;20061;-73
2022/12/25 05:44:12;;;;;;;9.52;6.95;;;;;;;9.15;100.00;99885.75;5016294;28;20038;-73
2022/12/25 05:46:37;;;;;;;9.05;6.88;;;;;;;9.15;100.00;99878.25;5016492;28;20061;-73
2022/12/25 05:49:04;;;;;;;9.15;7.25;;;;;;;9.17;100.00;99866.91;5016924;28;20030;-73
2022/12/25 05:51:30;;;;;;;7.72;6.22;;;;;;;9.16;100.00;99865.22;5021971;28;20613;-73
2022/12/25 05:53:55;;;;;;;7.97;6.60;;;;;;;9.14;100.00;99854.47;5023772;28;20074;-73
2022/12/25 05:56:20;;;;;;;7.50;6.55;;;;;;;9.14;100.00;99846.16;5016565;28;20041;-73
2022/12/25 05:58:46;;;;;;;8.30;6.93;;;;;;;9.14;100.00;99845.34;5016591;28;20153;-73
2022/12/25 06:01:13;;;;;;;9.82;6.95;;;;;;;9.12;100.00;99834.53;5016405;28;20490;-73
2022/12/25 06:03:39;;;;;;;9.55;6.85;;;;;;;9.13;100.00;99838.13;5016475;28;20033;-73
2022/12/25 06:06:06;;;;;;;9.40;6.78;;;;;;;9.13;100.00;99844.47;5016128;28;20686;-73
2022/12/25 06:08:33;;;;;;;9.05;6.60;;;;;;;9.11;100.00;99840.38;5015079;28;20026;-74
2022/12/25 06:10:58;;;;;;;7.63;6.40;;;;;;;9.11;100.00;99845.91;5016464;28;20026;-73
2022/12/25 06:13:24;;;;;;;8.05;6.50;;;;;;;9.11;100.00;99835.66;5024953;28;20033;-74
2022/12/25 06:15:49;;;;;;;7.28;5.45;;;;;;;9.10;100.00;99836.78;5016886;28;20030;-74
2022/12/25 06:18:15;;;;;;;8.45;6.90;;;;;;;9.12;100.00;99820.69;5015052;28;20033;-74
2022/12/25 06:20:40;;;;;;;7.07;6.05;;;;;;;9.11;100.00;99802.44;5015002;28;20038;-73
2022/12/25 06:23:05;;;;;;;6.25;5.60;;;;;;;9.09;100.00;99798.31;5016079;28;20080;-73
2022/12/25 06:25:31;;;;;;;7.30;5.68;;;;;;;9.11;100.00;99779.44;5005888;28;20453;-73
2022/12/25 06:27:56;;;;;;;7.03;5.75;;;;;;;9.12;100.00;99789.41;5016156;28;20088;-73
2022/12/25 06:30:22;;;;;;;6.45;5.47;;;;;;;9.11;100.00;99796.91;5014713;28;20034;-73
2022/12/25 06:32:47;;;;;;;9.80;6.97;;;;;;;9.10;100.00;99805.50;5018057;28;20554;-73
2022/12/25 06:35:13;;;;;;;7.28;5.90;;;;;;;9.08;100.00;99818.81;5018010;28;20100;-73
2022/12/25 06:37:38;;;;;;;7.72;5.90;;;;;;;9.08;100.00;99816.88;5015904;28;20077;-73
2022/12/25 06:40:05;;;;;;;6.97;5.32;;;;;;;9.10;100.00;99830.41;5015721;28;20022;-73
2022/12/25 06:42:30;;;;;;;6.45;5.10;;;;;;;9.10;100.00;99828.47;5016037;28;20034;-73
2022/12/25 06:44:56;;;;;;;6.07;5.40;;;;;;;9.08;100.00;99824.34;5015346;28;20072;-73
2022/12/25 06:47:21;;;;;;;6.88;5.15;;;;;;;9.08;100.00;99816.88;5015407;28;20663;-73
2022/12/25 06:49:46;;;;;;;6.97;4.60;;;;;;;9.07;100.00;99818.00;5015688;28;20033;-73
2022/12/25 06:52:12;;;;;;;6.85;5.20;;;;;;;9.09;100.00;99798.31;5015783;28;20042;-74
2022/12/25 06:54:37;;;;;;;6.35;5.20;;;;;;;9.07;100.00;99781.97;5018544;28;20053;-73
2022/12/25 06:57:03;;;;;;;6.72;4.97;;;;;;;9.07;100.00;99778.41;5015520;28;20021;-73
2022/12/25 06:59:28;;;;;;;6.45;5.18;;;;;;;9.04;100.00;99765.97;5033422;28;20036;-73
2022/12/25 07:01:57;;;;;;;5.57;4.97;;;;;;;9.06;100.00;99763.72;5035261;28;20079;-73
2022/12/25 07:04:34;;;;;;;6.65;5.60;;;;;;;9.07;100.00;99759.81;5024641;28;20490;-73
2022/12/25 07:07:00;;;;;;;7.10;5.65;;;;;;;9.04;100.00;99745.75;5015516;28;20037;-73
2022/12/25 07:09:25;;;;;;;5.82;5.10;;;;;;;9.04;100.00;99752.13;5015425;28;20034;-73
2022/12/25 07:11:51;;;;;;;5.78;4.80;;;;;;;9.03;100.00;99753.25;5015386;28;20458;-73
2022/12/25 07:14:17;;;;;;;6.25;5.43;;;;;;;9.05;100.00;99758.47;5031738;28;20033;-73
2022/12/25 07:16:43;;;;;;;7.82;5.80;;;;;;;9.03;100.00;99767.09;5021298;28;20038;-73
2022/12/25 07:19:08;;;;;;;7.63;6.10;;;;;;;9.05;100.00;99769.56;5014453;28;20034;-73
2022/12/25 07:21:34;;;;;;;8.95;6.38;;;;;;;9.04;100.00;99754.91;5015426;28;20029;-73
2022/12/25 07:23:59;;;;;;;7.82;6.28;;;;;;;9.05;100.00;99761.25;5010266;28;20030;-73
2022/12/25 07:26:25;;;;;;;8.32;6.90;;;;;;;9.05;100.00;99773.16;5007715;28;20529;-73
2022/12/25 07:28:50;;;;;;;8.30;6.80;;;;;;;9.04;100.00;99767.91;5015437;28;20033;-73
2022/12/25 07:31:16;;;;;;;7.00;5.60;;;;;;;9.04;100.00;99776.22;5015251;28;20053;-73
2022/12/25 07:33:42;;;;;;;6.53;5.32;;;;;;;9.04;100.00;99779.81;5019173;28;20121;-73
2022/12/25 07:36:08;;;;;;;6.82;5.38;;;;;;;9.03;100.00;99769.06;5015620;28;20080;-73
2022/12/25 07:38:33;;;;;;;6.68;4.75;;;;;;;9.06;100.00;99771.22;5015322;28;20053;-73
2022/12/25 07:40:59;;;;;;;6.15;4.70;;;;;;;9.07;100.00;99779.22;5015338;28;20026;-73
2022/12/25 07:43:24;;;;;;;5.63;5.00;;;;;;;9.07;100.00;99768.13;5015192;28;20063;-73
2022/12/25 07:45:55;;;;;;;6.57;5.28;;;;;;;9.06;100.00;99780.34;5015075;28;20030;-74
2022/12/25 07:48:20;;;;;;;10.18;7.75;;;;;;;9.07;100.00;99787.53;5013885;28;20045;-73
2022/12/25 07:50:46;;;;;;;6.75;5.55;;;;;;;9.07;100.00;99789.47;5015180;28;20034;-73
2022/12/25 07:53:11;;;;;;;8.13;5.60;;;;;;;9.07;100.00;99789.47;5014667;28;20029;-73
2022/12/25 07:55:37;;;;;;;9.30;6.30;;;;;;;9.07;100.00;99790.28;5015349;28;20037;-73
2022/12/25 07:58:02;;;;;;;7.10;5.57;;;;;;;9.07;100.00;99795.84;5015375;28;20033;-73
2022/12/25 08:00:31;;;;;;;7.50;6.30;;;;;;;9.07;100.00;99801.38;5013620;28;20034;-73
2022/12/25 08:02:57;;;;;;;7.38;5.30;;;;;;;9.06;100.00;99793.38;5015333;28;20100;-73
2022/12/25 08:05:23;;;;;;;6.45;5.15;;;;;;;9.07;100.00;99783.94;5015091;28;20029;-73
2022/12/25 08:07:52;;;;;;;8.38;5.40;;;;;;;9.08;100.00;99794.72;5018069;28;20034;-73
2022/12/25 08:10:18;;;;;;;6.10;5.35;;;;;;;9.10;100.00;99794.41;5018516;28;20500;-73
2022/12/25 08:12:43;;;;;;;5.57;4.75;;;;;;;9.10;100.00;99797.19;5020995;28;20034;-73
2022/12/25 08:15:09;;;;;;;6.22;5.40;;;;;;;9.08;100.00;99786.41;5024097;28;20037;-73
2022/12/25 08:17:34;;;;;;;8.30;5.43;;;;;;;9.11;100.00;99796.91;5018880;28;20022;-73
2022/12/25 08:20:00;;;;;;;6.85;5.45;;;;;;;9.10;100.00;99798.00;5018537;28;20037;-73
2022/12/25 08:22:25;;;;;;;9.20;6.68;;;;;;;9.07;100.00;99795.84;5018285;28;20032;-73
2022/12/25 08:24:51;;;;;;;9.27;6.88;;;;;;;9.09;100.00;99792.78;5008430;28;20097;-73
2022/12/25 08:27:16;;;;;;;9.15;6.97;;;;;;;9.07;100.00;99784.75;5018124;28;20030;-73
2022/12/25 08:29:45;;;;;;;8.35;6.88;;;;;;;9.09;100.00;99793.59;5018452;28;20037;-73
2022/12/25 08:32:10;;;;;;;10.10;6.53;;;;;;;9.10;100.00;99789.69;5017084;28;20164;-73
2022/12/25 08:34:37;;;;;;;8.55;6.25;;;;;;;9.07;100.00;99784.75;5023403;28;20033;-73
2022/12/25 08:37:02;;;;;;;8.40;6.88;;;;;;;9.07;100.00;99783.94;5017679;28;20057;-73
2022/12/25 08:39:28;;;;;;;8.43;7.07;;;;;;;9.11;100.00;99788.59;5018091;28;20084;-73
2022/12/25 08:41:53;;;;;;;8.65;7.03;;;;;;;9.09;100.00;99782.50;5018041;28;20030;-74
2022/12/25 08:44:19;;;;;;;11.30;8.82;;;;;;;9.10;100.00;99778.59;5017993;28;20442;-73
2022/12/25 08:46:44;;;;;;;11.77;8.40;;;;;;;9.11;100.00;99784.97;5011457;28;20034;-73
2022/12/25 08:49:10;;;;;;;12.95;8.95;;;;;;;9.11;100.00;99788.59;5017658;28;20040;-73
2022/12/25 08:51:36;;;;;;;9.90;7.90;;;;;;;9.13;100.00;99800.16;5027709;28;20438;-73
2022/12/25 08:54:01;;;;;;;11.75;9.00;;;;;;;9.12;100.00;99800.47;5018091;28;20034;-73
2022/12/25 08:56:27;;;;;;;11.25;8.32;;;;;;;9.12;100.00;99815.16;5006576;28;20037;-73
2022/12/25 08:58:52;;;;;;;10.30;7.80;;;;;;;9.11;100.00;99813.50;5024799;28;20041;-73
2022/12/25 09:01:18;;;;;;;10.80;8.68;;;;;;;9.13;100.00;99824.28;5017257;28;20026;-73
2022/12/25 09:03:44;;;;;;;17.98;12.70;;;;;;;9.14;100.00;99823.16;5023895;28;20036;-73
2022/12/25 09:06:11;;;;;;;15.02;11.82;;;;;;;9.14;100.00;99829.53;5032718;28;20026;-73
2022/12/25 09:08:36;;;;;;;14.68;10.18;;;;;;;9.13;100.00;99833.41;5017538;28;20605;-74
2022/12/25 09:11:03;;;;;;;13.85;9.90;;;;;;;9.14;100.00;99834.25;5017665;28;20099;-73
2022/12/25 09:13:28;;;;;;;13.38;9.00;;;;;;;9.14;100.00;99825.94;5022633;28;20087;-73
2022/12/25 09:15:54;;;;;;;11.02;8.32;;;;;;;9.14;100.00;99828.72;5015716;28;20069;-73
2022/12/25 09:18:19;;;;;;;10.30;8.10;;;;;;;9.14;100.00;99824.00;5016850;28;20711;-73
2022/12/25 09:20:45;;;;;;;12.63;9.70;;;;;;;9.15;100.00;99841.44;5017293;28;20084;-73
2022/12/25 09:23:10;;;;;;;10.68;9.00;;;;;;;9.15;100.00;99842.25;5017069;28;20068;-73
2022/12/25 09:25:36;;;;;;;8.65;7.18;;;;;;;9.16;100.00;99852.22;5002547;28;20033;-73
2022/12/25 09:28:01;;;;;;;9.43;7.88;;;;;;;9.16;100.00;99860.53;5015892;28;20041;-73
2022/12/25 09:30:27;;;;;;;8.57;6.82;;;;;;;9.15;100.00;99852.50;5016572;28;20026;-73
2022/12/25 09:32:52;;;;;;;8.25;6.90;;;;;;;9.17;100.00;99844.72;5018862;28;20033;-73
2022/12/25 09:35:18;;;;;;;7.85;6.68;;;;;;;9.18;100.00;99838.06;5018320;28;20038;-74
2022/12/25 09:37:44;;;;;;;8.43;7.07;;;;;;;9.20;100.00;99835.81;5028711;28;20050;-73
2022/12/25 09:40:14;;;;;;;9.70;7.90;;;;;;;9.21;100.00;99825.53;5017720;28;20032;-73
2022/12/25 09:42:39;;;;;;;10.73;8.30;;;;;;;9.24;100.00;99827.72;4999101;28;20429;-73
2022/12/25 09:45:14;;;;;;;9.32;7.40;;;;;;;9.24;100.00;99830.47;5014936;28;20033;-73
2022/12/25 09:47:40;;;;;;;8.63;7.70;;;;;;;9.25;100.00;99824.66;5031536;28;20077;-73
2022/12/25 09:50:18;;;;;;;8.38;6.68;;;;;;;9.26;100.00;99834.59;4999040;28;20026;-73
2022/12/25 09:52:51;;;;;;;7.15;6.20;;;;;;;9.27;100.00;99835.41;5016296;28;20036;-73
2022/12/25 09:55:20;;;;;;;;;;;;;;;9.29;100.00;99830.41;5025715;28;20546;-73
2022/12/25 09:58:00;;;;;;;7.88;6.03;;;;;;;9.32;100.00;99824.25;5015331;28;19953;-73
2022/12/25 10:00:30;;;;;;;7.53;5.95;;;;;;;9.32;100.00;99825.06;4998510;28;20390;-74
2022/12/25 10:03:03;;;;;;;6.95;5.95;;;;;;;9.34;100.00;99825.59;5015094;28;20041;-73
2022/12/25 10:05:48;;;;;;;7.57;5.95;;;;;;;9.36;100.00;99834.44;5015605;28;20061;-73
2022/12/25 10:08:20;;;;;;;7.15;5.15;;;;;;;9.37;100.00;99843.56;5025530;28;20047;-73
2022/12/25 10:10:49;;;;;;;5.65;5.15;;;;;;;9.40;100.00;99848.50;5015648;28;20576;-73
2022/12/25 10:13:56;;;;;;;6.30;5.13;;;;;;;9.43;100.00;99863.72;5021545;28;20041;-73
2022/12/25 10:16:25;;;;;;;6.00;5.22;;;;;;;9.44;100.00;99870.88;5038180;28;20418;-73
2022/12/25 10:19:24;;;;;;;5.40;4.88;;;;;;;9.45;100.00;99858.69;5018411;28;20038;-73
2022/12/25 10:21:51;;;;;;;4.78;4.28;;;;;;;9.47;100.00;99865.59;5014930;28;20034;-73
2022/12/25 10:24:33;;;;;;;5.38;4.32;;;;;;;9.49;100.00;99876.34;5014617;28;20084;-73
2022/12/25 10:27:00;;;;;;;4.53;4.10;;;;;;;9.50;100.00;99878.84;5014374;28;20041;-73
2022/12/25 10:29:25;;;;;;;4.47;4.03;;;;;;;9.51;100.00;99861.06;4965737;28;20079;-72
2022/12/25 10:31:52;;;;;;;4.45;3.78;;;;;;;9.52;100.00;99848.84;4996757;28;20033;-73
2022/12/25 10:34:18;;;;;;;4.22;3.78;;;;;;;9.54;100.00;99862.41;5001547;28;20490;-73
2022/12/25 10:36:44;;;;;;;4.60;3.80;;;;;;;9.55;100.00;99864.88;5015315;28;20061;-73
2022/12/25 10:39:20;;;;;;;3.97;3.50;;;;;;;9.55;100.00;99867.63;4981855;28;20030;-73
2022/12/25 10:42:18;;;;;;;4.00;3.60;;;;;;;9.56;100.00;99855.44;5012932;28;20038;-73
2022/12/25 10:45:01;;;;;;;3.88;3.22;;;;;;;9.57;100.00;99848.75;5019218;28;20046;-73
2022/12/25 10:47:31;;;;;;;3.33;3.03;;;;;;;9.58;100.00;99842.13;5015536;28;20054;-73
2022/12/25 10:49:56;;;;;;;2.97;2.67;;;;;;;9.60;100.00;99839.03;5014146;28;20088;-73
2022/12/25 10:52:24;;;;;;;3.03;2.67;;;;;;;9.62;100.00;99829.28;5015590;28;20037;-73
2022/12/25 10:54:50;;;;;;;3.75;3.00;;;;;;;9.63;100.00;99844.78;5014187;28;20141;-73
2022/12/25 10:57:17;;;;;;;3.55;2.65;;;;;;;9.67;100.00;99846.94;5014305;28;20076;-73
2022/12/25 10:59:44;;;;;;;3.50;2.80;;;;;;;9.70;100.00;99844.41;5015343;28;20033;-73
2022/12/25 11:02:14;;;;;;;3.03;2.40;;;;;;;9.73;100.00;99848.50;5015201;28;20083;-74
2022/12/25 11:04:40;;;;;;;3.90;2.50;;;;;;;9.76;100.00;99864.53;5022186;28;20045;-73
2022/12/25 11:07:19;;;;;;;2.97;2.45;;;;;;;9.77;100.00;99858.66;5015446;28;20106;-73
2022/12/25 11:10:24;;;;;;;3.05;2.45;;;;;;;9.80;100.00;99858.06;4998235;28;20029;-73
2022/12/25 11:12:49;;;;;;;4.15;2.70;;;;;;;9.86;100.00;99861.56;5005693;28;20046;-73
2022/12/25 11:15:38;;;;;;;3.40;2.80;;;;;;;9.88;100.00;99856.53;5013601;28;20048;-73
2022/12/25 11:18:15;;;;;;;4.05;2.97;;;;;;;9.90;100.00;99857.06;5013922;28;20037;-73
2022/12/25 11:20:47;;;;;;;3.50;2.80;;;;;;;9.91;100.00;99853.16;5001081;28;20105;-73
2022/12/25 11:23:16;;;;;;;3.78;3.08;;;;;;;9.94;100.00;99855.31;5017988;28;20068;-74
2022/12/25 11:25:42;;;;;;;4.00;3.30;;;;;;;9.97;100.00;99853.88;5001503;28;20037;-74
2022/12/25 11:28:08;;;;;;;5.43;4.10;;;;;;;9.99;100.00;99848.84;5014970;28;20030;-73
2022/12/25 11:30:34;;;;;;;5.78;4.45;;;;;;;9.99;100.00;99848.84;5026918;28;20161;-73
2022/12/25 11:33:02;;;;;;;4.57;3.70;;;;;;;10.00;100.00;99844.94;4988432;28;20081;-73
2022/12/25 11:35:30;;;;;;;7.22;5.72;;;;;;;10.04;100.00;99840.44;4997872;28;20042;-73
2022/12/25 11:37:55;;;;;;;7.07;4.13;;;;;;;10.05;100.00;99837.34;4997452;28;20046;-73
2022/12/25 11:40:27;;;;;;;8.15;5.43;;;;;;;10.06;100.00;99827.91;5021144;28;20033;-73
2022/12/25 11:43:00;;;;;;;8.47;5.73;;;;;;;10.09;100.00;99831.22;5023197;28;20053;-73
2022/12/25 11:45:37;;;;;;;8.75;6.85;;;;;;;10.12;100.00;99836.13;5025377;28;20029;-73
2022/12/25 11:48:40;;;;;;;13.43;7.55;;;;;;;10.16;100.00;99832.44;5016867;28;20037;-73
2022/12/25 11:51:05;;;;;;;10.67;6.60;;;;;;;10.17;100.00;99828.53;4986781;28;20052;-73
2022/12/25 11:53:43;;;;;;;11.07;6.95;;;;;;;10.21;100.00;99828.72;5023670;28;20041;-74
2022/12/25 11:56:20;;;;;;;11.52;8.07;;;;;;;10.24;100.00;99822.56;5021463;28;20490;-73
2022/12/25 11:58:49;;;;;;;12.55;7.75;;;;;;;10.26;100.00;99825.88;5017462;28;20061;-73
2022/12/25 12:01:27;;;;;;;12.88;8.10;;;;;;;10.30;100.00;99826.91;5017209;28;20030;-73
2022/12/25 12:03:52;;;;;;;10.45;7.00;;;;;;;10.33;100.00;99822.69;5022312;28;20091;-73
2022/12/25 12:06:42;;;;;;;11.10;6.72;;;;;;;10.39;100.00;99825.06;5018290;28;20076;-73
2022/12/25 12:09:35;;;;;;;12.13;7.88;;;;;;;10.42;100.00;99824.44;5016922;28;20026;-73
2022/12/25 12:12:10;;;;;;;14.43;7.97;;;;;;;10.47;100.00;99821.56;5017435;28;20029;-73
2022/12/25 12:14:46;;;;;;;14.27;8.90;;;;;;;10.54;100.00;99817.53;5015600;28;20040;-73
2022/12/25 12:17:13;;;;;;;11.60;7.68;;;;;;;10.54;100.00;99823.09;5036538;28;20026;-73
2022/12/25 12:19:40;;;;;;;18.77;8.32;;;;;;;10.57;100.00;99808.59;5053515;28;20029;-73
2022/12/25 12:22:06;;;;;;;16.33;8.35;;;;;;;10.59;100.00;99811.88;5036787;28;20041;-73
2022/12/25 12:24:39;;;;;;;13.68;7.80;;;;;;;10.65;100.00;99824.53;5022501;28;20038;-74
2022/12/25 12:27:24;;;;;;;15.07;8.05;;;;;;;10.68;100.00;99826.69;5017367;28;20060;-73
2022/12/25 12:29:51;;;;;;;16.38;8.98;;;;;;;10.67;100.00;99817.53;5020802;28;20026;-74
2022/12/25 12:32:28;;;;;;;15.55;9.15;;;;;;;10.69;100.00;99809.69;5036714;28;20379;-73
2022/12/25 12:34:54;;;;;;;13.98;8.35;;;;;;;10.71;100.00;99803.84;5003788;28;20033;-73
2022/12/25 12:37:22;;;;;;;16.33;9.40;;;;;;;10.73;100.00;99804.34;5017541;28;20103;-73
2022/12/25 12:39:50;;;;;;;17.10;10.18;;;;;;;10.74;100.00;99814.31;5017753;28;20433;-73
2022/12/25 12:42:28;;;;;;;17.20;8.45;;;;;;;10.75;100.00;99813.16;5000458;28;20036;-73
2022/12/25 12:44:54;;;;;;;19.33;9.50;;;;;;;10.78;100.00;99815.34;5020875;28;20086;-73
2022/12/25 12:47:36;;;;;;;17.42;9.55;;;;;;;10.77;100.00;99816.47;5036109;28;20501;-73
2022/12/25 12:50:02;;;;;;;18.17;9.63;;;;;;;10.79;100.00;99811.41;5036161;28;20026;-73
2022/12/25 12:52:34;;;;;;;17.08;9.63;;;;;;;10.79;100.00;99805.88;5019379;28;20045;-73
2022/12/25 12:55:05;;;;;;;18.95;9.40;;;;;;;10.79;100.00;99811.41;5019273;28;20041;-73
2022/12/25 12:57:38;;;;;;;17.10;9.40;;;;;;;10.81;100.00;99813.88;5017569;28;20386;-73
2022/12/25 13:00:09;;;;;;;21.48;9.35;;;;;;;10.81;100.00;99809.16;5017576;28;20037;-73
2022/12/25 13:02:47;;;;;;;15.60;8.82;;;;;;;10.81;100.00;99803.59;5016437;28;20032;-74
2022/12/25 13:05:22;;;;;;;20.15;10.70;;;;;;;10.81;100.00;99795.28;5020648;28;20502;-73
2022/12/25 13:07:56;;;;;;;24.25;11.15;;;;;;;10.80;100.00;99790.84;5015755;28;20474;-74
2022/12/25 13:10:24;;;;;;;26.60;10.88;;;;;;;10.83;100.00;99800.50;5029553;28;20053;-73
2022/12/25 13:12:55;;;;;;;20.52;10.98;;;;;;;10.82;100.00;99798.88;5035906;28;20038;-73
2022/12/25 13:15:23;;;;;;;21.65;10.98;;;;;;;10.84;100.00;99802.16;5022164;28;20493;-73
2022/12/25 13:17:49;;;;;;;22.38;11.00;;;;;;;10.86;100.00;99817.34;5068976;28;20021;-73
2022/12/25 13:20:23;;;;;;;30.27;12.70;;;;;;;10.87;100.00;99819.03;5052195;28;20041;-73